sensor_id;sensor_type;location;lat;lon;timestamp;temperature;humidity
16388;DHT22;8303;53.446;9.988;2022-10-18T04:47:14;13.10;99.90
16388;DHT22;8303;53.446;9.988;2022-10-18T04:49:41;13.10;99.90
16388;DHT22;8303;53.446;9.988;2022-10-18T04:52:08;13.10;99.90
16388;DHT22;8303;53.446;9.988;2022-10-18T04:54:34;13.00;99.90
16388;DHT22;8303;53.446;9.988;2022-10-18T04:57:01;13.00;99.90
16388;DHT22;8303;53.446;9.988;2022-10-18T04:59:28;13.10;99.90
16388;DHT22;8303;53.446;9.988;2022-10-18T05:01:55;13.10;99.90
16388;DHT22;8303;53.446;9.988;2022-10-18T05:04:23;13.10;99.90
16388;DHT22;8303;53.446;9.988;2022-10-18T05:06:50;13.00;99.90
16388;DHT22;8303;53.446;9.988;2022-10-18T05:09:17;13.20;99.90
16388;DHT22;8303;53.446;9.988;2022-10-18T05:11:46;13.20;99.90
16388;DHT22;8303;53.446;9.988;2022-10-18T05:14:13;13.20;99.90
16388;DHT22;8303;53.446;9.988;2022-10-18T05:16:40;13.30;99.90
16388;DHT22;8303;53.446;9.988;2022-10-18T05:19:07;13.30;99.90
16388;DHT22;8303;53.446;9.988;2022-10-18T05:21:35;13.20;99.90
16388;DHT22;8303;53.446;9.988;2022-10-18T05:24:02;13.20;99.90
16388;DHT22;8303;53.446;9.988;2022-10-18T05:26:29;13.20;99.90
16388;DHT22;8303;53.446;9.988;2022-10-18T05:28:56;13.10;99.90
16388;DHT22;8303;53.446;9.988;2022-10-18T05:31:23;13.10;99.90
16388;DHT22;8303;53.446;9.988;2022-10-18T05:33:50;13.00;99.90
16388;DHT22;8303;53.446;9.988;2022-10-18T05:36:16;13.00;99.90
16388;DHT22;8303;53.446;9.988;2022-10-18T05:38:45;12.90;99.90
16388;DHT22;8303;53.446;9.988;2022-10-18T05:41:13;12.90;99.90
16388;DHT22;8303;53.446;9.988;2022-10-18T05:43:40;12.90;99.90
16388;DHT22;8303;53.446;9.988;2022-10-18T05:46:07;12.70;99.90
16388;DHT22;8303;53.446;9.988;2022-10-18T05:48:34;12.70;99.90
16388;DHT22;8303;53.446;9.988;2022-10-18T05:51:00;12.70;99.90
16388;DHT22;8303;53.446;9.988;2022-10-18T05:53:27;12.70;99.90
16388;DHT22;8303;53.446;9.988;2022-10-18T05:55:59;12.60;99.90
16388;DHT22;8303;53.446;9.988;2022-10-18T05:58:26;12.70;99.90
16388;DHT22;8303;53.446;9.988;2022-10-18T06:00:53;12.60;99.90
16388;DHT22;8303;53.446;9.988;2022-10-18T06:03:20;12.50;99.90
16388;DHT22;8303;53.446;9.988;2022-10-18T06:05:47;12.50;99.90
16388;DHT22;8303;53.446;9.988;2022-10-18T06:08:14;12.40;99.90
16388;DHT22;8303;53.446;9.988;2022-10-18T06:10:41;12.40;99.90
16388;DHT22;8303;53.446;9.988;2022-10-18T06:13:09;12.50;99.90
16388;DHT22;8303;53.446;9.988;2022-10-18T06:15:36;12.50;99.90
16388;DHT22;8303;53.446;9.988;2022-10-18T06:18:03;12.50;99.90
16388;DHT22;8303;53.446;9.988;2022-10-18T06:20:30;12.50;99.90
16388;DHT22;8303;53.446;9.988;2022-10-18T06:22:56;12.40;99.90
16388;DHT22;8303;53.446;9.988;2022-10-18T06:25:23;12.40;99.90
16388;DHT22;8303;53.446;9.988;2022-10-18T06:27:50;12.40;99.90
16388;DHT22;8303;53.446;9.988;2022-10-18T06:30:18;12.40;99.90
16388;DHT22;8303;53.446;9.988;2022-10-18T06:32:45;12.40;99.90
16388;DHT22;8303;53.446;9.988;2022-10-18T06:35:12;12.40;99.90
16388;DHT22;8303;53.446;9.988;2022-10-18T06:37:39;12.40;99.90
16388;DHT22;8303;53.446;9.988;2022-10-18T06:40:07;12.50;99.90
16388;DHT22;8303;53.446;9.988;2022-10-18T06:42:39;12.60;99.90
16388;DHT22;8303;53.446;9.988;2022-10-18T06:45:09;12.60;99.90
16388;DHT22;8303;53.446;9.988;2022-10-18T06:47:37;12.70;99.90
16388;DHT22;8303;53.446;9.988;2022-10-18T06:50:05;12.80;1.00
16388;DHT22;8303;53.446;9.988;2022-10-18T06:52:32;12.90;1.00
16388;DHT22;8303;53.446;9.988;2022-10-18T06:54:59;13.00;1.00
16388;DHT22;8303;53.446;9.988;2022-10-18T06:57:26;13.00;1.00
16388;DHT22;8303;53.446;9.988;2022-10-18T06:59:52;13.10;1.00
16388;DHT22;8303;53.446;9.988;2022-10-18T07:02:19;13.10;1.00
16388;DHT22;8303;53.446;9.988;2022-10-18T07:04:47;13.20;1.00
16388;DHT22;8303;53.446;9.988;2022-10-18T07:07:14;13.30;1.00
16388;DHT22;8303;53.446;9.988;2022-10-18T07:09:44;13.40;1.00
16388;DHT22;8303;53.446;9.988;2022-10-18T07:12:12;13.40;1.00
16388;DHT22;8303;53.446;9.988;2022-10-18T07:14:42;13.50;1.00
16388;DHT22;8303;53.446;9.988;2022-10-18T07:17:10;13.60;1.00
16388;DHT22;8303;53.446;9.988;2022-10-18T07:19:37;13.60;1.00
16388;DHT22;8303;53.446;9.988;2022-10-18T07:22:05;13.70;99.90
16388;DHT22;8303;53.446;9.988;2022-10-18T07:24:32;13.80;99.90
16388;DHT22;8303;53.446;9.988;2022-10-18T07:26:59;13.90;99.90
16388;DHT22;8303;53.446;9.988;2022-10-18T07:29:26;13.90;99.90
16388;DHT22;8303;53.446;9.988;2022-10-18T07:31:52;13.90;99.90
16388;DHT22;8303;53.446;9.988;2022-10-18T07:34:19;14.00;99.90
16388;DHT22;8303;53.446;9.988;2022-10-18T07:36:46;14.00;99.90
16388;DHT22;8303;53.446;9.988;2022-10-18T07:39:14;14.10;99.90
16388;DHT22;8303;53.446;9.988;2022-10-18T07:41:41;14.10;99.90
16388;DHT22;8303;53.446;9.988;2022-10-18T07:44:08;14.20;99.90
16388;DHT22;8303;53.446;9.988;2022-10-18T07:46:35;14.10;99.90
16388;DHT22;8303;53.446;9.988;2022-10-18T07:49:02;14.10;89.10
16388;DHT22;8303;53.446;9.988;2022-10-18T07:51:30;14.00;1.00
16388;DHT22;8303;53.446;9.988;2022-10-18T07:53:59;14.10;1.00
16388;DHT22;8303;53.446;9.988;2022-10-18T07:56:27;14.10;1.00
16388;DHT22;8303;53.446;9.988;2022-10-18T07:58:55;14.10;1.00
16388;DHT22;8303;53.446;9.988;2022-10-18T08:01:23;14.10;1.00
16388;DHT22;8303;53.446;9.988;2022-10-18T08:03:50;14.10;1.00
16388;DHT22;8303;53.446;9.988;2022-10-18T08:06:18;14.00;1.00
16388;DHT22;8303;53.446;9.988;2022-10-18T08:08:46;14.00;1.00
16388;DHT22;8303;53.446;9.988;2022-10-18T08:11:16;14.10;1.00
16388;DHT22;8303;53.446;9.988;2022-10-18T08:13:45;14.20;1.00
16388;DHT22;8303;53.446;9.988;2022-10-18T08:16:14;14.20;99.90
16388;DHT22;8303;53.446;9.988;2022-10-18T08:18:41;14.20;99.90
16388;DHT22;8303;53.446;9.988;2022-10-18T08:21:09;14.20;99.90
16388;DHT22;8303;53.446;9.988;2022-10-18T08:23:37;14.20;99.90
16388;DHT22;8303;53.446;9.988;2022-10-18T08:26:05;14.30;99.90
16388;DHT22;8303;53.446;9.988;2022-10-18T08:28:32;14.40;99.90
16388;DHT22;8303;53.446;9.988;2022-10-18T08:31:02;14.40;99.90
16388;DHT22;8303;53.446;9.988;2022-10-18T08:33:30;14.50;99.90
16388;DHT22;8303;53.446;9.988;2022-10-18T08:35:58;14.40;99.90
16388;DHT22;8303;53.446;9.988;2022-10-18T08:38:28;14.50;99.90
16388;DHT22;8303;53.446;9.988;2022-10-18T08:40:57;14.40;99.90
16388;DHT22;8303;53.446;9.988;2022-10-18T08:43:30;14.50;99.90
16388;DHT22;8303;53.446;9.988;2022-10-18T08:46:00;14.50;99.90
16388;DHT22;8303;53.446;9.988;2022-10-18T08:48:34;14.40;99.90
16388;DHT22;8303;53.446;9.988;2022-10-18T08:51:03;14.40;99.90
16388;DHT22;8303;53.446;9.988;2022-10-18T08:53:44;14.50;99.90
16388;DHT22;8303;53.446;9.988;2022-10-18T08:56:14;14.40;99.90
16388;DHT22;8303;53.446;9.988;2022-10-18T08:58:46;14.30;99.90
16388;DHT22;8303;53.446;9.988;2022-10-18T09:01:23;14.20;99.90
16388;DHT22;8303;53.446;9.988;2022-10-18T09:04:04;14.10;99.90
16388;DHT22;8303;53.446;9.988;2022-10-18T09:06:41;14.00;99.90
16388;DHT22;8303;53.446;9.988;2022-10-18T09:09:27;14.00;99.90
16388;DHT22;8303;53.446;9.988;2022-10-18T09:12:02;13.80;99.90
16388;DHT22;8303;53.446;9.988;2022-10-18T09:14:51;13.80;99.90
16388;DHT22;8303;53.446;9.988;2022-10-18T09:17:29;13.80;99.90
16388;DHT22;8303;53.446;9.988;2022-10-18T09:20:10;13.70;99.90
16388;DHT22;8303;53.446;9.988;2022-10-18T09:22:50;13.80;1.00
16388;DHT22;8303;53.446;9.988;2022-10-18T09:25:20;13.80;1.00
16388;DHT22;8303;53.446;9.988;2022-10-18T09:27:52;13.90;1.00
16388;DHT22;8303;53.446;9.988;2022-10-18T09:30:38;14.00;1.00
16388;DHT22;8303;53.446;9.988;2022-10-18T09:33:28;14.10;1.00
16388;DHT22;8303;53.446;9.988;2022-10-18T09:36:03;14.20;99.90
16388;DHT22;8303;53.446;9.988;2022-10-18T09:38:36;14.30;99.90
16388;DHT22;8303;53.446;9.988;2022-10-18T09:41:11;14.30;99.90
16388;DHT22;8303;53.446;9.988;2022-10-18T09:43:51;14.40;99.90
16388;DHT22;8303;53.446;9.988;2022-10-18T09:46:22;14.50;99.90
16388;DHT22;8303;53.446;9.988;2022-10-18T09:48:53;14.60;99.90
16388;DHT22;8303;53.446;9.988;2022-10-18T09:51:25;14.70;99.90
16388;DHT22;8303;53.446;9.988;2022-10-18T09:54:16;14.80;53.00
16388;DHT22;8303;53.446;9.988;2022-10-18T09:56:49;14.80;1.00
16388;DHT22;8303;53.446;9.988;2022-10-18T09:59:27;15.00;1.00
16388;DHT22;8303;53.446;9.988;2022-10-18T10:01:55;15.10;1.00
16388;DHT22;8303;53.446;9.988;2022-10-18T10:04:25;15.10;1.00
16388;DHT22;8303;53.446;9.988;2022-10-18T10:06:55;15.10;99.90
16388;DHT22;8303;53.446;9.988;2022-10-18T10:09:26;15.10;99.90
16388;DHT22;8303;53.446;9.988;2022-10-18T10:11:56;15.20;99.90
16388;DHT22;8303;53.446;9.988;2022-10-18T10:14:27;15.30;99.90
16388;DHT22;8303;53.446;9.988;2022-10-18T10:16:57;15.40;99.90
16388;DHT22;8303;53.446;9.988;2022-10-18T10:19:29;15.40;99.90
16388;DHT22;8303;53.446;9.988;2022-10-18T10:22:02;15.40;99.90
16388;DHT22;8303;53.446;9.988;2022-10-18T10:24:40;15.50;99.90
16388;DHT22;8303;53.446;9.988;2022-10-18T10:27:15;15.50;99.90
16388;DHT22;8303;53.446;9.988;2022-10-18T10:29:55;15.60;99.90
16388;DHT22;8303;53.446;9.988;2022-10-18T10:32:28;15.60;99.90
16388;DHT22;8303;53.446;9.988;2022-10-18T10:34:56;15.60;99.90
16388;DHT22;8303;53.446;9.988;2022-10-18T10:37:31;15.50;99.90
16388;DHT22;8303;53.446;9.988;2022-10-18T10:40:09;15.40;99.90
16388;DHT22;8303;53.446;9.988;2022-10-18T10:42:58;15.40;99.90
16388;DHT22;8303;53.446;9.988;2022-10-18T10:45:27;15.50;99.90
16388;DHT22;8303;53.446;9.988;2022-10-18T10:48:02;15.50;99.90
16388;DHT22;8303;53.446;9.988;2022-10-18T10:50:30;15.50;99.90
16388;DHT22;8303;53.446;9.988;2022-10-18T10:52:58;15.60;99.90
16388;DHT22;8303;53.446;9.988;2022-10-18T10:55:34;15.60;99.90
16388;DHT22;8303;53.446;9.988;2022-10-18T10:58:02;15.70;99.90
16388;DHT22;8303;53.446;9.988;2022-10-18T11:00:37;15.60;99.90
16388;DHT22;8303;53.446;9.988;2022-10-18T11:03:08;15.70;99.90
16388;DHT22;8303;53.446;9.988;2022-10-18T11:05:43;15.70;99.90
16388;DHT22;8303;53.446;9.988;2022-10-18T11:08:14;15.70;99.90
16388;DHT22;8303;53.446;9.988;2022-10-18T11:10:53;15.70;99.90
16388;DHT22;8303;53.446;9.988;2022-10-18T11:13:32;15.60;99.90
16388;DHT22;8303;53.446;9.988;2022-10-18T11:16:10;15.70;99.90
16388;DHT22;8303;53.446;9.988;2022-10-18T11:18:39;15.80;99.90
16388;DHT22;8303;53.446;9.988;2022-10-18T11:21:13;15.90;99.90
16388;DHT22;8303;53.446;9.988;2022-10-18T11:23:43;16.20;99.90
16388;DHT22;8303;53.446;9.988;2022-10-18T11:26:23;16.30;99.90
16388;DHT22;8303;53.446;9.988;2022-10-18T11:29:07;16.40;99.90
16388;DHT22;8303;53.446;9.988;2022-10-18T11:31:43;16.30;99.90
16388;DHT22;8303;53.446;9.988;2022-10-18T11:34:26;16.10;78.90
16388;DHT22;8303;53.446;9.988;2022-10-18T11:37:01;15.90;99.90
16388;DHT22;8303;53.446;9.988;2022-10-18T11:39:43;15.70;99.90
16388;DHT22;8303;53.446;9.988;2022-10-18T11:42:18;15.70;99.90
16388;DHT22;8303;53.446;9.988;2022-10-18T11:44:56;15.90;99.90
16388;DHT22;8303;53.446;9.988;2022-10-18T11:47:33;15.90;89.00
16388;DHT22;8303;53.446;9.988;2022-10-18T11:50:11;16.10;94.00
16388;DHT22;8303;53.446;9.988;2022-10-18T11:52:49;16.20;26.70
16388;DHT22;8303;53.446;9.988;2022-10-18T11:55:42;16.20;2.30
16388;DHT22;8303;53.446;9.988;2022-10-18T11:58:28;16.20;41.90
16388;DHT22;8303;53.446;9.988;2022-10-18T12:01:06;16.00;1.00
16388;DHT22;8303;53.446;9.988;2022-10-18T12:03:48;16.00;24.70
16388;DHT22;8303;53.446;9.988;2022-10-18T12:06:19;15.90;46.20
16388;DHT22;8303;53.446;9.988;2022-10-18T12:08:48;15.70;13.00
16388;DHT22;8303;53.446;9.988;2022-10-18T12:11:22;15.60;51.70
16388;DHT22;8303;53.446;9.988;2022-10-18T12:13:52;15.60;95.30
16388;DHT22;8303;53.446;9.988;2022-10-18T12:16:23;15.70;98.80
16388;DHT22;8303;53.446;9.988;2022-10-18T12:18:53;15.80;67.50
16388;DHT22;8303;53.446;9.988;2022-10-18T12:21:22;15.80;1.00
16388;DHT22;8303;53.446;9.988;2022-10-18T12:23:52;15.90;25.70
16388;DHT22;8303;53.446;9.988;2022-10-18T12:26:22;16.10;18.10
16388;DHT22;8303;53.446;9.988;2022-10-18T12:28:57;16.20;9.70
16388;DHT22;8303;53.446;9.988;2022-10-18T12:31:29;16.20;1.00
16388;DHT22;8303;53.446;9.988;2022-10-18T12:34:05;16.20;1.00
16388;DHT22;8303;53.446;9.988;2022-10-18T12:36:50;16.30;1.00
16388;DHT22;8303;53.446;9.988;2022-10-18T12:39:23;16.30;1.00
16388;DHT22;8303;53.446;9.988;2022-10-18T12:41:54;16.20;1.00
16388;DHT22;8303;53.446;9.988;2022-10-18T12:44:27;16.20;1.00
16388;DHT22;8303;53.446;9.988;2022-10-18T12:46:57;16.20;1.00
16388;DHT22;8303;53.446;9.988;2022-10-18T12:49:27;16.20;1.00
16388;DHT22;8303;53.446;9.988;2022-10-18T12:51:56;16.20;99.90
16388;DHT22;8303;53.446;9.988;2022-10-18T12:54:26;16.10;99.90
16388;DHT22;8303;53.446;9.988;2022-10-18T12:56:56;15.90;99.90
16388;DHT22;8303;53.446;9.988;2022-10-18T12:59:50;15.80;99.90
16388;DHT22;8303;53.446;9.988;2022-10-18T13:02:21;15.90;99.90
16388;DHT22;8303;53.446;9.988;2022-10-18T13:04:48;16.00;99.90
16388;DHT22;8303;53.446;9.988;2022-10-18T13:07:21;16.00;99.90
16388;DHT22;8303;53.446;9.988;2022-10-18T13:13:35;16.00;99.90
16388;DHT22;8303;53.446;9.988;2022-10-18T13:18:52;16.20;99.90
16388;DHT22;8303;53.446;9.988;2022-10-18T13:21:26;16.30;99.90
16388;DHT22;8303;53.446;9.988;2022-10-18T13:24:10;16.30;99.90
16388;DHT22;8303;53.446;9.988;2022-10-18T13:26:46;16.30;99.90
16388;DHT22;8303;53.446;9.988;2022-10-18T13:29:42;16.40;99.90
16388;DHT22;8303;53.446;9.988;2022-10-18T13:32:23;16.40;99.90
16388;DHT22;8303;53.446;9.988;2022-10-18T13:34:50;16.50;99.90
16388;DHT22;8303;53.446;9.988;2022-10-18T13:37:22;16.60;99.90
16388;DHT22;8303;53.446;9.988;2022-10-18T13:39:50;16.60;99.90
16388;DHT22;8303;53.446;9.988;2022-10-18T13:42:27;16.50;99.90
16388;DHT22;8303;53.446;9.988;2022-10-18T13:45:42;16.50;99.90
16388;DHT22;8303;53.446;9.988;2022-10-18T13:48:44;16.50;99.90
16388;DHT22;8303;53.446;9.988;2022-10-18T13:51:29;16.40;99.90
16388;DHT22;8303;53.446;9.988;2022-10-18T13:54:05;16.20;99.90
16388;DHT22;8303;53.446;9.988;2022-10-18T13:56:50;16.10;99.90
16388;DHT22;8303;53.446;9.988;2022-10-18T13:59:29;16.00;99.90
16388;DHT22;8303;53.446;9.988;2022-10-18T14:02:19;15.90;99.90
16388;DHT22;8303;53.446;9.988;2022-10-18T14:05:10;15.80;99.90
16388;DHT22;8303;53.446;9.988;2022-10-18T14:07:41;15.70;99.90
16388;DHT22;8303;53.446;9.988;2022-10-18T14:10:12;15.60;99.90
16388;DHT22;8303;53.446;9.988;2022-10-18T14:12:46;15.50;99.90
16388;DHT22;8303;53.446;9.988;2022-10-18T14:15:19;15.50;99.90
16388;DHT22;8303;53.446;9.988;2022-10-18T14:17:51;15.40;99.90
16388;DHT22;8303;53.446;9.988;2022-10-18T14:20:23;15.40;99.90
16388;DHT22;8303;53.446;9.988;2022-10-18T14:22:55;15.40;99.90
16388;DHT22;8303;53.446;9.988;2022-10-18T14:25:27;15.30;99.90
16388;DHT22;8303;53.446;9.988;2022-10-18T14:28:11;15.30;99.90
16388;DHT22;8303;53.446;9.988;2022-10-18T14:30:52;15.30;99.90
16388;DHT22;8303;53.446;9.988;2022-10-18T14:33:26;15.30;99.90
16388;DHT22;8303;53.446;9.988;2022-10-18T14:36:04;15.30;99.90
16388;DHT22;8303;53.446;9.988;2022-10-18T14:38:31;15.30;99.90
16388;DHT22;8303;53.446;9.988;2022-10-18T14:41:14;15.40;99.90
16388;DHT22;8303;53.446;9.988;2022-10-18T14:43:41;15.50;99.90
16388;DHT22;8303;53.446;9.988;2022-10-18T14:46:13;15.60;99.90
16388;DHT22;8303;53.446;9.988;2022-10-18T14:48:51;15.70;99.90
16388;DHT22;8303;53.446;9.988;2022-10-18T14:51:17;15.70;99.90
16388;DHT22;8303;53.446;9.988;2022-10-18T14:53:45;15.70;99.90
16388;DHT22;8303;53.446;9.988;2022-10-18T14:56:25;15.60;99.90
16388;DHT22;8303;53.446;9.988;2022-10-18T14:58:53;15.60;99.90
16388;DHT22;8303;53.446;9.988;2022-10-18T15:01:23;15.60;99.90
16388;DHT22;8303;53.446;9.988;2022-10-18T15:03:56;15.60;99.90
16388;DHT22;8303;53.446;9.988;2022-10-18T15:06:23;15.60;99.90
16388;DHT22;8303;53.446;9.988;2022-10-18T15:08:53;15.60;99.90
16388;DHT22;8303;53.446;9.988;2022-10-18T15:11:21;15.70;99.90
16388;DHT22;8303;53.446;9.988;2022-10-18T15:13:52;15.70;99.90
16388;DHT22;8303;53.446;9.988;2022-10-18T15:16:22;15.60;99.90
16388;DHT22;8303;53.446;9.988;2022-10-18T15:19:04;15.40;99.90
16388;DHT22;8303;53.446;9.988;2022-10-18T15:21:32;15.30;99.90
16388;DHT22;8303;53.446;9.988;2022-10-18T15:24:25;15.20;99.90
16388;DHT22;8303;53.446;9.988;2022-10-18T15:26:55;15.10;99.90
16388;DHT22;8303;53.446;9.988;2022-10-18T15:29:24;14.90;99.90
16388;DHT22;8303;53.446;9.988;2022-10-18T15:31:52;14.80;99.90
16388;DHT22;8303;53.446;9.988;2022-10-18T15:34:22;14.80;99.90
16388;DHT22;8303;53.446;9.988;2022-10-18T15:36:51;14.70;99.90
16388;DHT22;8303;53.446;9.988;2022-10-18T15:39:23;14.60;99.90
16388;DHT22;8303;53.446;9.988;2022-10-18T15:41:51;14.60;1.00
16388;DHT22;8303;53.446;9.988;2022-10-18T15:44:22;14.60;1.00
16388;DHT22;8303;53.446;9.988;2022-10-18T15:46:52;14.50;1.00
16388;DHT22;8303;53.446;9.988;2022-10-18T15:52:32;14.50;1.00
16388;DHT22;8303;53.446;9.988;2022-10-18T15:55:00;14.40;1.00
16388;DHT22;8303;53.446;9.988;2022-10-18T15:57:29;14.30;1.00
16388;DHT22;8303;53.446;9.988;2022-10-18T15:59:58;14.20;1.00
16388;DHT22;8303;53.446;9.988;2022-10-18T16:02:26;14.10;1.00
16388;DHT22;8303;53.446;9.988;2022-10-18T16:04:53;14.10;1.00
16388;DHT22;8303;53.446;9.988;2022-10-18T16:07:20;14.00;1.00
16388;DHT22;8303;53.446;9.988;2022-10-18T16:09:48;14.00;1.00
16388;DHT22;8303;53.446;9.988;2022-10-18T16:12:15;13.90;1.00
16388;DHT22;8303;53.446;9.988;2022-10-18T16:14:42;13.80;1.00
16388;DHT22;8303;53.446;9.988;2022-10-18T16:17:10;13.70;1.00
16388;DHT22;8303;53.446;9.988;2022-10-18T16:19:41;13.70;1.00
16388;DHT22;8303;53.446;9.988;2022-10-18T16:22:10;13.70;1.00
16388;DHT22;8303;53.446;9.988;2022-10-18T16:24:37;13.70;1.00
16388;DHT22;8303;53.446;9.988;2022-10-18T16:27:05;13.70;1.00
16388;DHT22;8303;53.446;9.988;2022-10-18T16:29:32;13.70;1.00
16388;DHT22;8303;53.446;9.988;2022-10-18T16:31:59;13.70;1.00
16388;DHT22;8303;53.446;9.988;2022-10-18T16:34:26;13.70;1.00
16388;DHT22;8303;53.446;9.988;2022-10-18T16:36:53;13.70;1.00
16388;DHT22;8303;53.446;9.988;2022-10-18T16:39:21;13.70;1.00
16388;DHT22;8303;53.446;9.988;2022-10-18T16:41:48;13.70;1.00
16388;DHT22;8303;53.446;9.988;2022-10-18T16:44:17;13.70;1.00
16388;DHT22;8303;53.446;9.988;2022-10-18T16:46:45;13.70;1.00
16388;DHT22;8303;53.446;9.988;2022-10-18T16:49:17;13.70;1.00
16388;DHT22;8303;53.446;9.988;2022-10-18T16:51:44;13.70;1.00
16388;DHT22;8303;53.446;9.988;2022-10-18T16:54:11;13.70;1.00
16388;DHT22;8303;53.446;9.988;2022-10-18T16:56:38;13.60;1.00
16388;DHT22;8303;53.446;9.988;2022-10-18T16:59:05;13.50;1.00
16388;DHT22;8303;53.446;9.988;2022-10-18T17:01:33;13.40;1.00
16388;DHT22;8303;53.446;9.988;2022-10-18T17:04:00;13.30;1.00
16388;DHT22;8303;53.446;9.988;2022-10-18T17:06:29;13.30;1.00
16388;DHT22;8303;53.446;9.988;2022-10-18T17:08:58;13.20;1.00
16388;DHT22;8303;53.446;9.988;2022-10-18T17:11:26;13.10;1.00
16388;DHT22;8303;53.446;9.988;2022-10-18T17:13:53;13.10;1.00
16388;DHT22;8303;53.446;9.988;2022-10-18T17:16:23;13.10;1.00
16388;DHT22;8303;53.446;9.988;2022-10-18T17:18:53;13.20;1.00
16388;DHT22;8303;53.446;9.988;2022-10-18T17:21:21;13.20;1.00
16388;DHT22;8303;53.446;9.988;2022-10-18T17:23:48;13.20;1.00
16388;DHT22;8303;53.446;9.988;2022-10-18T17:26:16;13.30;1.00
16388;DHT22;8303;53.446;9.988;2022-10-18T17:28:43;13.30;1.00
16388;DHT22;8303;53.446;9.988;2022-10-18T17:31:10;13.20;1.00
16388;DHT22;8303;53.446;9.988;2022-10-18T17:33:39;13.20;1.00
16388;DHT22;8303;53.446;9.988;2022-10-18T17:36:07;13.20;1.00
16388;DHT22;8303;53.446;9.988;2022-10-18T17:38:34;13.20;1.00
16388;DHT22;8303;53.446;9.988;2022-10-18T17:41:05;13.30;1.00
16388;DHT22;8303;53.446;9.988;2022-10-18T17:43:32;13.20;1.00
16388;DHT22;8303;53.446;9.988;2022-10-18T17:45:58;13.30;1.00
16388;DHT22;8303;53.446;9.988;2022-10-18T17:48:25;13.30;1.00
16388;DHT22;8303;53.446;9.988;2022-10-18T17:50:53;13.30;1.00
16388;DHT22;8303;53.446;9.988;2022-10-18T17:53:21;13.30;1.00
16388;DHT22;8303;53.446;9.988;2022-10-18T17:55:56;13.30;1.00
16388;DHT22;8303;53.446;9.988;2022-10-18T17:58:23;13.40;1.00
16388;DHT22;8303;53.446;9.988;2022-10-18T18:00:50;13.40;1.00
16388;DHT22;8303;53.446;9.988;2022-10-18T18:03:17;13.30;1.00
16388;DHT22;8303;53.446;9.988;2022-10-18T18:05:44;13.40;1.00
16388;DHT22;8303;53.446;9.988;2022-10-18T18:08:12;13.40;1.00
16388;DHT22;8303;53.446;9.988;2022-10-18T18:10:41;13.40;1.00
16388;DHT22;8303;53.446;9.988;2022-10-18T18:13:07;13.40;1.00
16388;DHT22;8303;53.446;9.988;2022-10-18T18:15:34;13.30;1.00
16388;DHT22;8303;53.446;9.988;2022-10-18T18:18:04;13.40;1.00
16388;DHT22;8303;53.446;9.988;2022-10-18T18:20:30;13.40;1.00
16388;DHT22;8303;53.446;9.988;2022-10-18T18:22:57;13.40;1.00
16388;DHT22;8303;53.446;9.988;2022-10-18T18:25:24;13.40;1.00
16388;DHT22;8303;53.446;9.988;2022-10-18T18:27:53;13.50;1.00
16388;DHT22;8303;53.446;9.988;2022-10-18T18:30:19;13.50;1.00
16388;DHT22;8303;53.446;9.988;2022-10-18T18:32:47;13.50;1.00
16388;DHT22;8303;53.446;9.988;2022-10-18T18:35:14;13.50;1.00
16388;DHT22;8303;53.446;9.988;2022-10-18T18:37:41;13.50;1.00
16388;DHT22;8303;53.446;9.988;2022-10-18T18:40:08;13.50;1.00
16388;DHT22;8303;53.446;9.988;2022-10-18T18:42:35;13.50;1.00
16388;DHT22;8303;53.446;9.988;2022-10-18T18:45:04;13.60;1.00
16388;DHT22;8303;53.446;9.988;2022-10-18T18:47:31;13.50;1.00
16388;DHT22;8303;53.446;9.988;2022-10-18T18:50:00;13.50;1.00
16388;DHT22;8303;53.446;9.988;2022-10-18T18:52:26;13.50;1.00
16388;DHT22;8303;53.446;9.988;2022-10-18T18:54:53;13.50;1.00
16388;DHT22;8303;53.446;9.988;2022-10-18T18:57:20;13.50;1.00
16388;DHT22;8303;53.446;9.988;2022-10-18T18:59:47;13.50;1.00
16388;DHT22;8303;53.446;9.988;2022-10-18T19:02:15;13.50;1.00
16388;DHT22;8303;53.446;9.988;2022-10-18T19:04:42;13.50;1.00
16388;DHT22;8303;53.446;9.988;2022-10-18T19:07:09;13.50;1.00
16388;DHT22;8303;53.446;9.988;2022-10-18T19:09:36;13.50;1.00
16388;DHT22;8303;53.446;9.988;2022-10-18T19:12:04;13.50;1.00
16388;DHT22;8303;53.446;9.988;2022-10-18T19:14:30;13.50;1.00
16388;DHT22;8303;53.446;9.988;2022-10-18T19:16:57;13.50;1.00
16388;DHT22;8303;53.446;9.988;2022-10-18T19:19:28;13.50;1.00
16388;DHT22;8303;53.446;9.988;2022-10-18T19:21:56;13.40;1.00
16388;DHT22;8303;53.446;9.988;2022-10-18T19:24:25;13.40;1.00
16388;DHT22;8303;53.446;9.988;2022-10-18T19:26:53;13.50;1.00
16388;DHT22;8303;53.446;9.988;2022-10-18T19:29:22;13.40;1.00
16388;DHT22;8303;53.446;9.988;2022-10-18T19:31:50;13.40;1.00
16388;DHT22;8303;53.446;9.988;2022-10-18T19:34:18;13.40;1.00
16388;DHT22;8303;53.446;9.988;2022-10-18T19:36:47;13.40;1.00
16388;DHT22;8303;53.446;9.988;2022-10-18T19:39:16;13.40;1.00
16388;DHT22;8303;53.446;9.988;2022-10-18T19:41:43;13.40;1.00
16388;DHT22;8303;53.446;9.988;2022-10-18T19:44:10;13.40;1.00
16388;DHT22;8303;53.446;9.988;2022-10-18T19:46:37;13.40;1.00
16388;DHT22;8303;53.446;9.988;2022-10-18T19:49:04;13.30;1.00
16388;DHT22;8303;53.446;9.988;2022-10-18T19:51:31;13.40;1.00
16388;DHT22;8303;53.446;9.988;2022-10-18T19:53:59;13.40;1.00
16388;DHT22;8303;53.446;9.988;2022-10-18T19:56:26;13.40;1.00
16388;DHT22;8303;53.446;9.988;2022-10-18T19:58:55;13.30;1.00
16388;DHT22;8303;53.446;9.988;2022-10-18T20:01:23;13.30;1.00
16388;DHT22;8303;53.446;9.988;2022-10-18T20:03:50;13.30;1.00
16388;DHT22;8303;53.446;9.988;2022-10-18T20:06:17;13.30;1.00
16388;DHT22;8303;53.446;9.988;2022-10-18T20:08:44;13.30;1.00
16388;DHT22;8303;53.446;9.988;2022-10-18T20:11:13;13.30;1.00
16388;DHT22;8303;53.446;9.988;2022-10-18T20:13:41;13.30;1.00
16388;DHT22;8303;53.446;9.988;2022-10-18T20:16:09;13.30;1.00
16388;DHT22;8303;53.446;9.988;2022-10-18T20:18:36;13.20;1.00
16388;DHT22;8303;53.446;9.988;2022-10-18T20:21:03;13.20;1.00
16388;DHT22;8303;53.446;9.988;2022-10-18T20:23:31;13.20;1.00
16388;DHT22;8303;53.446;9.988;2022-10-18T20:25:59;13.20;1.00
16388;DHT22;8303;53.446;9.988;2022-10-18T20:28:27;13.20;1.00
